Terminal Aerodrome Forecast
Issued by NWS Portland, OR

Home | Current Version | Previous Version | Text Only | Print | Product List | Glossary On
Versions: 1 2 3 4 5 6 7 8 9 10 11 12 13 14 15
000
FTUS46 KPQR 251739
TAFTTD
TAF
KTTD 251739Z 2518/2618 VRB03KT P6SM BKN025
     FM251830 VRB04KT P6SM FEW030
     FM252000 VRB04KT P6SM SKC
     FM252200 05004KT P6SM SCT050 BKN250
     FM260400 VRB03KT P6SM SKC=

USA.gov is the U.S. government's official web portal to all federal, state and local government web resources and services.